King Khaled Military City Airport


Codes: OEKK/HBT
Name: King Khaled Military City Airport
City: King Khaled Military City
Country: Saudi Arabia
Elevation: 1352 ft.
Wikipedia:

Photos at King Khaled Military City Airport


   Photos courtesy of SpottingLog. You can add your own sightings and photos by signing up for a free trial today.



No photos found.

Weather at King Khaled Military City Airport


Time (UTC)DescriptionTempratureWindCloud coverageVisibilityPressureHumidity
13-Jun-2024 03:00Clear Sky30°C7 mph, NW0%10000m1007hPa12%
13-Jun-2024 06:00Clear Sky35°C7 mph, N0%10000m1008hPa11%
13-Jun-2024 09:00Clear Sky41°C9 mph, NW0%10000m1006hPa7%
13-Jun-2024 12:00Clear Sky43°C18 mph, NW0%10000m1003hPa6%
13-Jun-2024 15:00Clear Sky40°C16 mph, NW0%10000m1003hPa6%
13-Jun-2024 18:00Clear Sky35°C9 mph, NW0%10000m1004hPa10%
13-Jun-2024 21:00Clear Sky32°C11 mph, NW0%10000m1003hPa10%
14-Jun-2024 00:00Clear Sky31°C11 mph, NW0%10000m1002hPa12%
14-Jun-2024 03:00Clear Sky30°C9 mph, NW0%10000m1003hPa13%
14-Jun-2024 06:00Clear Sky38°C13 mph, NW0%10000m1003hPa9%
14-Jun-2024 09:00Clear Sky42°C18 mph, NW0%10000m1001hPa8%
14-Jun-2024 12:00Clear Sky43°C20 mph, NW0%10000m999hPa7%
14-Jun-2024 15:00Clear Sky41°C13 mph, N0%10000m999hPa8%
14-Jun-2024 18:00Clear Sky35°C7 mph, NW0%10000m1000hPa12%
14-Jun-2024 21:00Clear Sky33°C9 mph, NW0%10000m1000hPa14%
15-Jun-2024 00:00Clear Sky31°C11 mph, NW0%10000m1000hPa16%
15-Jun-2024 03:00Clear Sky30°C11 mph, NW0%10000m1001hPa17%
15-Jun-2024 06:00Clear Sky38°C11 mph, NW0%10000m1001hPa11%
15-Jun-2024 09:00Clear Sky43°C11 mph, N0%10000m999hPa8%
15-Jun-2024 12:00Clear Sky44°C13 mph, N0%10000m998hPa7%
15-Jun-2024 15:00Clear Sky42°C9 mph, N0%10000m998hPa9%
15-Jun-2024 18:00Clear Sky37°C9 mph, N0%10000m1000hPa11%
15-Jun-2024 21:00Clear Sky33°C7 mph, N0%10000m1001hPa15%
16-Jun-2024 00:00Clear Sky32°C9 mph, N0%10000m1001hPa16%
16-Jun-2024 03:00Clear Sky33°C9 mph, N0%10000m1003hPa15%
16-Jun-2024 06:00Clear Sky40°C13 mph, N0%10000m1003hPa9%
16-Jun-2024 09:00Clear Sky44°C11 mph, N0%10000m1002hPa7%
16-Jun-2024 12:00Clear Sky45°C11 mph, N0%10000m1000hPa6%
16-Jun-2024 15:00Clear Sky43°C11 mph, N0%10000m1000hPa7%
16-Jun-2024 18:00Clear Sky37°C9 mph, NE0%10000m1003hPa10%
16-Jun-2024 21:00Clear Sky33°C7 mph, E0%10000m1004hPa11%
17-Jun-2024 00:00Clear Sky31°C2 mph, SE0%10000m1004hPa22%
17-Jun-2024 03:00Clear Sky32°C2 mph, N0%10000m1005hPa21%
17-Jun-2024 06:00Clear Sky41°C4 mph, NW0%10000m1005hPa9%
17-Jun-2024 09:00Clear Sky45°C9 mph, N0%10000m1004hPa6%
17-Jun-2024 12:00Clear Sky46°C11 mph, NE0%10000m1002hPa5%
17-Jun-2024 15:00Clear Sky44°C13 mph, NE0%10000m1002hPa6%
17-Jun-2024 18:00Clear Sky37°C11 mph, N0%10000m1004hPa8%
17-Jun-2024 21:00Clear Sky35°C11 mph, NE0%10000m1004hPa9%
18-Jun-2024 00:00Clear Sky33°C9 mph, NE0%10000m1004hPa11%